createdAt,value
2023-04-29T00:01:30.788Z,14.79
2023-04-29T00:06:32.513Z,14.79
2023-04-29T00:11:35.506Z,14.76
2023-04-29T00:16:37.833Z,14.86
2023-04-29T00:21:39.564Z,14.87
2023-04-29T00:26:42.668Z,14.81
2023-04-29T00:31:44.577Z,14.78
2023-04-29T00:36:46.291Z,14.76
2023-04-29T00:41:49.342Z,14.77
2023-04-29T00:46:51.036Z,14.68
2023-04-29T00:51:52.786Z,14.67
2023-04-29T00:56:55.960Z,14.62
2023-04-29T01:01:59.334Z,14.65
2023-04-29T01:07:04.429Z,14.65
2023-04-29T01:12:13.688Z,14.43
2023-04-29T01:17:18.335Z,14.49
2023-04-29T01:22:21.858Z,14.55
2023-04-29T01:27:29.697Z,14.64
2023-04-29T01:32:44.032Z,14.42
2023-04-29T01:37:52.221Z,14.31
2023-04-29T01:43:00.611Z,14.25
2023-04-29T01:48:03.010Z,14.15
2023-04-29T01:53:07.022Z,14.13
2023-04-29T01:58:10.803Z,14.33
2023-04-29T02:03:28.923Z,14.06
2023-04-29T02:08:32.295Z,14.01
2023-04-29T02:13:37.614Z,13.79
2023-04-29T02:18:40.606Z,13.82
2023-04-29T02:23:42.356Z,13.79
2023-04-29T02:28:45.447Z,13.66
2023-04-29T02:33:47.212Z,13.63
2023-04-29T02:38:50.716Z,13.64
2023-04-29T02:43:53.774Z,13.91
2023-04-29T02:48:55.565Z,13.60
2023-04-29T02:54:16.576Z,13.61
2023-04-29T02:59:19.678Z,13.71
2023-04-29T03:04:21.543Z,13.61
2023-04-29T03:09:23.602Z,13.86
2023-04-29T03:14:26.821Z,13.47
2023-04-29T03:19:28.559Z,13.13
2023-04-29T03:24:30.377Z,13.31
2023-04-29T03:29:33.533Z,13.42
2023-04-29T03:34:35.457Z,13.14
2023-04-29T03:39:50.065Z,12.91
2023-04-29T03:44:53.141Z,12.86
2023-04-29T03:49:55.166Z,12.84
2023-04-29T03:54:57.147Z,12.82
2023-04-29T04:00:00.404Z,12.76
2023-04-29T04:05:02.505Z,12.50
2023-04-29T04:10:05.167Z,13.02
2023-04-29T04:15:09.718Z,13.17
2023-04-29T04:20:13.199Z,13.12
2023-04-29T04:25:15.055Z,13.42
2023-04-29T04:30:18.521Z,13.14
2023-04-29T04:35:20.624Z,13.09
2023-04-29T04:40:22.893Z,12.73
2023-04-29T04:45:46.018Z,12.92
2023-04-29T04:50:47.926Z,12.92
2023-04-29T04:55:50.967Z,12.98
2023-04-29T05:00:55.319Z,12.98
2023-04-29T05:05:57.426Z,12.77
2023-04-29T05:10:59.793Z,12.45
2023-04-29T05:16:06.490Z,11.72
2023-04-29T05:21:09.542Z,11.66
2023-04-29T05:26:12.063Z,11.30
2023-04-29T05:31:15.356Z,11.29
2023-04-29T05:36:17.293Z,11.35
2023-04-29T05:41:21.683Z,11.74
2023-04-29T05:46:51.627Z,11.86
2023-04-29T05:51:53.926Z,12.03
2023-04-29T05:56:56.315Z,12.12
2023-04-29T06:02:00.932Z,12.24
2023-04-29T06:07:03.314Z,11.96
2023-04-29T06:12:23.489Z,12.04
2023-04-29T06:17:29.226Z,12.11
2023-04-29T06:22:31.174Z,12.14
2023-04-29T06:27:34.194Z,12.33
2023-04-29T06:32:37.830Z,12.12
2023-04-29T06:37:42.141Z,12.31
2023-04-29T06:43:10.610Z,12.35
2023-04-29T06:48:32.316Z,12.78
2023-04-29T06:53:34.130Z,13.06
2023-04-29T06:58:35.995Z,13.18
2023-04-29T07:03:39.418Z,13.69
2023-04-29T07:08:41.172Z,13.70
2023-04-29T07:13:42.973Z,14.09
2023-04-29T07:18:45.950Z,14.22
2023-04-29T07:23:47.982Z,14.25
2023-04-29T07:28:50.055Z,15.01
2023-04-29T07:33:53.114Z,15.02
2023-04-29T07:38:56.420Z,14.83
2023-04-29T07:43:58.108Z,14.59
2023-04-29T07:49:01.261Z,15.48
2023-04-29T07:54:03.022Z,19.12
2023-04-29T07:59:05.102Z,17.22
2023-04-29T08:04:08.504Z,17.00
2023-04-29T08:09:21.189Z,19.58
2023-04-29T08:14:22.888Z,19.30
2023-04-29T08:19:25.987Z,19.19
2023-04-29T08:24:29.601Z,19.17
2023-04-29T08:29:32.764Z,17.80
2023-04-29T08:34:36.367Z,22.71
2023-04-29T08:39:38.025Z,25.16
2023-04-29T08:44:40.773Z,21.04
2023-04-29T08:49:43.823Z,19.75
2023-04-29T08:54:45.536Z,19.37
2023-04-29T08:59:47.241Z,18.81
2023-04-29T09:04:53.920Z,17.92
2023-04-29T09:09:55.973Z,18.37
2023-04-29T09:14:59.540Z,19.91
2023-04-29T09:20:02.982Z,18.32
2023-04-29T09:25:14.030Z,18.50
2023-04-29T09:30:16.766Z,21.20
2023-04-29T09:35:26.407Z,21.16
2023-04-29T09:40:30.630Z,22.91
2023-04-29T09:45:35.704Z,22.88
2023-04-29T09:50:39.257Z,21.50
2023-04-29T09:55:58.791Z,19.65
2023-04-29T10:01:01.554Z,19.54
2023-04-29T10:06:06.114Z,22.20
2023-04-29T10:11:07.821Z,23.94
2023-04-29T10:16:13.778Z,22.15
2023-04-29T10:21:16.868Z,19.63
2023-04-29T10:26:18.732Z,20.16
2023-04-29T10:31:21.669Z,20.48
2023-04-29T10:36:25.856Z,23.76
2023-04-29T10:41:29.888Z,21.46
2023-04-29T10:46:31.617Z,20.29
2023-04-29T10:51:35.353Z,20.49
2023-04-29T10:56:38.347Z,21.47
2023-04-29T11:01:42.250Z,21.77
2023-04-29T11:06:51.969Z,20.86
2023-04-29T11:12:01.567Z,19.26
2023-04-29T11:17:04.448Z,18.58
2023-04-29T11:22:12.705Z,18.28
2023-04-29T11:27:14.417Z,19.13
2023-04-29T11:32:16.171Z,18.93
2023-04-29T11:37:23.380Z,18.45
2023-04-29T11:42:25.063Z,18.27
2023-04-29T11:47:28.150Z,18.65
2023-04-29T11:52:31.270Z,18.70
2023-04-29T11:57:32.979Z,18.73
2023-04-29T12:02:34.871Z,19.12
2023-04-29T12:07:38.714Z,19.16
2023-04-29T12:12:42.314Z,19.71
2023-04-29T12:17:44.193Z,19.56
2023-04-29T12:22:47.281Z,19.19
2023-04-29T12:27:48.978Z,18.88
2023-04-29T12:32:51.838Z,18.63
2023-04-29T12:37:54.855Z,18.38
2023-04-29T12:42:56.553Z,18.39
2023-04-29T12:47:58.423Z,18.32
2023-04-29T12:53:01.926Z,18.82
2023-04-29T12:58:03.804Z,18.73
2023-04-29T13:03:05.761Z,18.58
2023-04-29T13:08:08.989Z,18.78
2023-04-29T13:13:10.678Z,18.82
2023-04-29T13:18:12.557Z,18.77
2023-04-29T13:23:15.689Z,18.41
2023-04-29T13:28:17.594Z,18.42
2023-04-29T13:33:19.655Z,18.29
2023-04-29T13:38:23.070Z,18.32
2023-04-29T13:43:36.783Z,18.27
2023-04-29T13:59:36.261Z,18.24
2023-04-29T14:04:15.410Z,18.15
2023-04-29T14:09:19.967Z,18.19
2023-04-29T14:14:21.711Z,18.27
2023-04-29T14:19:23.383Z,18.05
2023-04-29T14:24:28.719Z,17.82
2023-04-29T14:29:30.531Z,17.87
2023-04-29T14:34:32.212Z,17.99
2023-04-29T14:39:35.331Z,17.88
2023-04-29T14:44:37.030Z,17.84
2023-04-29T14:49:38.811Z,18.03
2023-04-29T14:54:41.853Z,18.06
2023-04-29T14:59:44.415Z,18.12
2023-04-29T15:04:46.365Z,18.34
2023-04-29T15:09:50.553Z,18.45
2023-04-29T15:14:53.470Z,18.59
2023-04-29T15:19:55.355Z,18.61
2023-04-29T15:24:58.436Z,18.56
2023-04-29T15:30:00.167Z,18.40
2023-04-29T15:35:02.248Z,18.47
2023-04-29T15:40:06.732Z,18.53
2023-04-29T15:45:09.547Z,18.32
2023-04-29T15:50:11.422Z,18.03
2023-04-29T15:55:16.618Z,17.90
2023-04-29T16:00:19.056Z,17.69
2023-04-29T16:05:20.986Z,17.77
2023-04-29T16:10:24.373Z,17.79
2023-04-29T16:15:26.072Z,17.65
2023-04-29T16:20:27.847Z,17.49
2023-04-29T16:25:30.937Z,17.43
2023-04-29T16:30:32.644Z,17.38
2023-04-29T16:35:34.470Z,17.19
2023-04-29T16:40:37.493Z,16.93
2023-04-29T16:45:39.166Z,16.97
2023-04-29T16:50:40.884Z,17.32
2023-04-29T16:55:43.890Z,17.64
2023-04-29T17:00:45.729Z,17.67
2023-04-29T17:05:48.598Z,17.53
2023-04-29T17:10:51.625Z,17.48
2023-04-29T17:15:53.449Z,17.17
2023-04-29T17:20:55.526Z,16.99
2023-04-29T17:25:58.593Z,16.83
2023-04-29T17:31:01.325Z,16.62
2023-04-29T17:36:03.716Z,16.51
2023-04-29T17:41:06.827Z,16.28
2023-04-29T17:46:08.529Z,16.21
2023-04-29T17:51:10.248Z,16.01
2023-04-29T17:56:13.484Z,15.94
2023-04-29T18:01:15.300Z,15.77
2023-04-29T18:06:17.462Z,15.58
2023-04-29T18:11:21.040Z,15.46
2023-04-29T18:16:22.852Z,15.28
2023-04-29T18:21:24.696Z,15.15
2023-04-29T18:26:28.575Z,14.87
2023-04-29T18:31:30.382Z,14.73
2023-04-29T18:36:32.954Z,14.66
2023-04-29T18:41:36.155Z,14.58
2023-04-29T18:46:37.978Z,14.39
2023-04-29T18:51:40.391Z,14.39
2023-04-29T18:56:44.691Z,14.25
2023-04-29T19:01:46.553Z,14.16
2023-04-29T19:06:48.264Z,14.12
2023-04-29T19:11:51.292Z,14.04
2023-04-29T19:16:54.742Z,13.92
2023-04-29T19:21:56.545Z,13.78
2023-04-29T19:26:59.556Z,13.67
2023-04-29T19:32:01.522Z,13.52
2023-04-29T19:37:03.240Z,13.45
2023-04-29T19:42:06.260Z,13.43
2023-04-29T19:47:07.992Z,13.38
2023-04-29T19:52:09.706Z,13.21
2023-04-29T19:57:12.768Z,13.10
2023-04-29T20:02:14.498Z,13.01
2023-04-29T20:07:16.227Z,12.90
2023-04-29T20:12:19.239Z,12.69
2023-04-29T20:17:21.016Z,12.63
2023-04-29T20:22:22.943Z,12.64
2023-04-29T20:27:26.244Z,12.44
2023-04-29T20:32:28.004Z,12.26
2023-04-29T20:37:29.833Z,12.08
2023-04-29T20:42:32.891Z,12.05
2023-04-29T20:47:35.448Z,11.87
2023-04-29T20:52:37.987Z,11.83
2023-04-29T20:57:41.065Z,11.76
2023-04-29T21:02:42.800Z,11.66
2023-04-29T21:07:44.511Z,11.66
2023-04-29T21:12:47.554Z,11.68
2023-04-29T21:17:49.334Z,11.63
2023-04-29T21:22:51.313Z,11.58
2023-04-29T21:27:54.343Z,11.53
2023-04-29T21:32:56.319Z,11.50
2023-04-29T21:37:58.138Z,11.33
2023-04-29T21:43:01.165Z,11.22
2023-04-29T21:48:05.912Z,11.18
2023-04-29T21:53:07.652Z,11.13
2023-04-29T21:58:11.513Z,11.13
2023-04-29T22:03:13.402Z,11.10
2023-04-29T22:08:15.144Z,10.96
2023-04-29T22:13:18.190Z,10.90
2023-04-29T22:18:19.946Z,10.79
2023-04-29T22:23:22.661Z,10.58
2023-04-29T22:28:25.712Z,10.45
2023-04-29T22:33:27.529Z,10.41
2023-04-29T22:38:29.499Z,10.34
2023-04-29T22:43:32.529Z,10.33
2023-04-29T22:48:34.300Z,10.21
2023-04-29T22:53:35.985Z,10.13
2023-04-29T22:58:39.504Z,10.02
2023-04-29T23:03:41.190Z,9.98
2023-04-29T23:08:44.490Z,9.90
2023-04-29T23:13:47.574Z,9.74
2023-04-29T23:18:49.316Z,9.50
2023-04-29T23:23:51.020Z,9.39
2023-04-29T23:28:54.069Z,9.30
2023-04-29T23:33:55.835Z,9.09
2023-04-29T23:38:57.549Z,8.90
2023-04-29T23:44:02.324Z,8.79
2023-04-29T23:49:04.065Z,8.64
2023-04-29T23:54:05.803Z,8.62
2023-04-29T23:59:08.869Z,8.60
